createdAt,value
2019-02-02T00:02:51.957Z,986.49
2019-02-02T00:07:48.197Z,986.45
2019-02-02T00:12:43.615Z,986.51
2019-02-02T00:17:39.242Z,986.45
2019-02-02T00:22:34.781Z,986.37
2019-02-02T00:27:41.074Z,986.19
2019-02-02T00:32:29.974Z,986.38
2019-02-02T00:37:26.511Z,986.44
2019-02-02T00:42:21.772Z,986.39
2019-02-02T00:47:17.387Z,986.30
2019-02-02T00:52:13.972Z,986.37
2019-02-02T00:57:09.061Z,986.36
2019-02-02T01:02:04.516Z,986.44
2019-02-02T01:07:00.073Z,986.44
2019-02-02T01:11:56.686Z,986.43
2019-02-02T01:16:51.782Z,986.53
2019-02-02T01:21:48.433Z,986.48
2019-02-02T01:26:43.595Z,986.48
2019-02-02T01:31:39.205Z,986.40
2019-02-02T01:36:34.811Z,986.45
2019-02-02T01:41:30.922Z,986.47
2019-02-02T01:46:26.338Z,986.53
2019-02-02T01:51:21.928Z,986.45
2019-02-02T01:56:17.558Z,986.52
2019-02-02T02:01:14.569Z,986.51
2019-02-02T02:06:09.761Z,986.38
2019-02-02T02:11:05.210Z,986.44
2019-02-02T02:16:00.827Z,986.47
2019-02-02T02:20:56.446Z,986.41
2019-02-02T02:25:51.916Z,986.35
2019-02-02T02:30:47.726Z,986.34
2019-02-02T02:35:44.216Z,986.21
2019-02-02T02:40:39.628Z,986.39
2019-02-02T02:45:35.288Z,986.31
2019-02-02T02:50:31.302Z,986.49
2019-02-02T02:55:26.815Z,986.41
2019-02-02T03:00:23.391Z,986.39
2019-02-02T03:05:18.934Z,986.31
2019-02-02T03:10:15.611Z,986.43
2019-02-02T03:15:10.991Z,986.46
2019-02-02T03:20:06.391Z,986.52
2019-02-02T03:25:03.258Z,986.50
2019-02-02T03:29:58.749Z,986.57
2019-02-02T03:34:54.236Z,986.60
2019-02-02T03:39:49.737Z,986.53
2019-02-02T03:44:46.188Z,986.64
2019-02-02T03:49:41.748Z,986.65
2019-02-02T03:54:37.576Z,986.80
2019-02-02T03:59:33.280Z,986.74
2019-02-02T04:04:28.770Z,986.71
2019-02-02T04:09:25.157Z,986.73
2019-02-02T04:14:20.812Z,986.70
2019-02-02T04:19:17.199Z,986.73
2019-02-02T04:24:12.806Z,986.67
2019-02-02T04:29:17.587Z,986.70
2019-02-02T04:34:07.385Z,986.73
2019-02-02T04:39:02.871Z,986.90
2019-02-02T04:43:58.378Z,986.89
2019-02-02T04:48:53.793Z,987.11
2019-02-02T04:53:48.966Z,987.15
2019-02-02T04:58:44.510Z,987.22
2019-02-02T05:03:40.141Z,987.21
2019-02-02T05:08:35.696Z,987.39
2019-02-02T05:13:31.209Z,987.34
2019-02-02T05:18:27.089Z,987.38
2019-02-02T05:23:22.692Z,987.42
2019-02-02T05:28:18.268Z,987.47
2019-02-02T05:33:13.735Z,987.56
2019-02-02T05:38:10.271Z,987.60
2019-02-02T05:43:05.648Z,987.54
2019-02-02T05:48:01.963Z,987.65
2019-02-02T05:52:58.398Z,987.70
2019-02-02T05:57:54.775Z,987.75
2019-02-02T06:02:51.043Z,987.76
2019-02-02T06:07:46.980Z,987.93
2019-02-02T06:12:42.486Z,987.98
2019-02-02T06:17:38.046Z,987.90
2019-02-02T06:22:34.613Z,987.96
2019-02-02T06:27:29.898Z,987.98
2019-02-02T06:32:25.405Z,988.03
2019-02-02T06:37:22.119Z,988.10
2019-02-02T06:42:17.451Z,988.21
2019-02-02T06:47:12.908Z,988.32
2019-02-02T06:52:08.368Z,988.31
2019-02-02T06:57:03.974Z,988.41
2019-02-02T07:02:01.428Z,988.50
2019-02-02T07:06:57.306Z,988.52
2019-02-02T07:11:53.947Z,988.61
2019-02-02T07:16:50.426Z,988.69
2019-02-02T07:21:46.804Z,988.72
2019-02-02T07:26:42.027Z,988.80
2019-02-02T07:31:37.524Z,988.92
2019-02-02T07:36:33.078Z,988.94
2019-02-02T07:41:29.782Z,989.10
2019-02-02T07:46:25.563Z,989.00
2019-02-02T07:51:21.171Z,989.01
2019-02-02T07:56:16.925Z,989.10
2019-02-02T08:01:12.441Z,989.02
2019-02-02T08:06:08.054Z,989.04
2019-02-02T08:11:03.577Z,989.10
2019-02-02T08:15:58.904Z,989.20
2019-02-02T08:20:55.443Z,989.29
2019-02-02T08:25:50.718Z,989.35
2019-02-02T08:30:52.408Z,989.30
2019-02-02T08:35:45.815Z,989.29
2019-02-02T08:40:41.719Z,989.48
2019-02-02T08:45:37.316Z,989.41
2019-02-02T08:50:33.478Z,989.51
2019-02-02T08:55:29.272Z,989.66
2019-02-02T09:00:24.729Z,989.72
2019-02-02T09:05:20.972Z,989.76
2019-02-02T09:10:16.507Z,989.68
2019-02-02T09:15:12.697Z,989.78
2019-02-02T09:20:08.043Z,989.77
2019-02-02T09:25:04.771Z,989.81
2019-02-02T09:30:00.468Z,989.87
2019-02-02T09:34:56.024Z,989.76
2019-02-02T09:39:52.483Z,989.89
2019-02-02T09:44:47.813Z,990.04
2019-02-02T09:49:43.571Z,990.11
2019-02-02T09:54:39.376Z,990.08
2019-02-02T09:59:35.432Z,990.16
2019-02-02T10:04:30.539Z,990.19
2019-02-02T10:09:25.876Z,990.23
2019-02-02T10:14:21.685Z,990.23
2019-02-02T10:19:17.292Z,990.33
2019-02-02T10:24:13.064Z,990.45
2019-02-02T10:29:09.631Z,990.57
2019-02-02T10:34:04.778Z,990.61
2019-02-02T10:39:00.410Z,990.69
2019-02-02T10:43:57.204Z,990.86
2019-02-02T10:48:53.373Z,990.84
2019-02-02T10:53:50.535Z,990.87
2019-02-02T10:58:46.968Z,990.95
2019-02-02T11:03:42.632Z,991.01
2019-02-02T11:08:39.413Z,991.12
2019-02-02T11:13:35.639Z,991.12
2019-02-02T11:18:31.616Z,991.26
2019-02-02T11:23:27.115Z,991.23
2019-02-02T11:28:23.835Z,991.33
2019-02-02T11:33:19.235Z,991.32
2019-02-02T11:38:15.582Z,991.25
2019-02-02T11:43:11.094Z,991.34
2019-02-02T11:48:06.847Z,991.40
2019-02-02T11:53:02.562Z,991.58
2019-02-02T11:57:58.041Z,991.63
2019-02-02T12:02:53.359Z,991.64
2019-02-02T12:07:50.032Z,991.75
2019-02-02T12:12:45.199Z,991.87
2019-02-02T12:17:41.191Z,991.86
2019-02-02T12:22:36.722Z,991.90
2019-02-02T12:27:32.201Z,992.12
2019-02-02T12:32:28.821Z,992.12
2019-02-02T12:37:23.927Z,992.23
2019-02-02T12:42:20.217Z,992.11
2019-02-02T12:47:15.746Z,992.22
2019-02-02T12:52:12.110Z,992.32
2019-02-02T12:57:07.772Z,992.32
2019-02-02T13:02:03.444Z,992.33
2019-02-02T13:06:59.096Z,992.40
2019-02-02T13:11:56.292Z,992.36
2019-02-02T13:16:51.331Z,992.57
2019-02-02T13:21:48.023Z,992.65
2019-02-02T13:26:44.421Z,992.70
2019-02-02T13:31:39.985Z,992.77
2019-02-02T13:36:36.439Z,992.86
2019-02-02T13:41:33.233Z,993.01
2019-02-02T13:46:28.330Z,992.98
2019-02-02T13:51:24.756Z,993.16
2019-02-02T13:56:20.145Z,993.29
2019-02-02T14:01:15.749Z,993.30
2019-02-02T14:06:12.098Z,993.46
2019-02-02T14:11:07.326Z,993.51
2019-02-02T14:16:03.699Z,993.63
2019-02-02T14:20:59.179Z,993.69
2019-02-02T14:25:54.537Z,993.66
2019-02-02T14:30:53.565Z,993.71
2019-02-02T14:35:52.328Z,993.80
2019-02-02T14:40:48.194Z,993.90
2019-02-02T14:45:43.491Z,993.99
2019-02-02T14:50:39.231Z,994.07
2019-02-02T14:55:34.954Z,994.16
2019-02-02T15:00:30.589Z,994.20
2019-02-02T15:05:26.237Z,994.33
2019-02-02T15:10:21.686Z,994.35
2019-02-02T15:15:17.098Z,994.50
2019-02-02T15:20:13.829Z,994.65
2019-02-02T15:25:10.052Z,994.63
2019-02-02T15:30:06.327Z,994.71
2019-02-02T15:35:02.767Z,994.73
2019-02-02T15:39:59.579Z,994.88
2019-02-02T15:44:54.849Z,994.96
2019-02-02T15:49:50.352Z,995.08
2019-02-02T15:54:45.972Z,995.23
2019-02-02T15:59:41.448Z,995.24
2019-02-02T16:04:36.985Z,995.28
2019-02-02T16:09:32.512Z,995.43
2019-02-02T16:14:29.129Z,995.56
2019-02-02T16:19:26.187Z,995.61
2019-02-02T16:24:21.183Z,995.77
2019-02-02T16:29:16.662Z,995.93
2019-02-02T16:34:13.303Z,995.87
2019-02-02T16:39:08.672Z,996.10
2019-02-02T16:44:04.206Z,996.06
2019-02-02T16:48:59.691Z,996.23
2019-02-02T16:53:55.286Z,996.40
2019-02-02T16:58:50.778Z,996.51
2019-02-02T17:03:46.346Z,996.61
2019-02-02T17:08:43.120Z,996.74
2019-02-02T17:13:38.466Z,996.83
2019-02-02T17:18:33.902Z,996.77
2019-02-02T17:23:29.412Z,996.93
2019-02-02T17:28:24.813Z,997.00
2019-02-02T17:33:20.416Z,997.02
2019-02-02T17:38:16.031Z,997.11
2019-02-02T17:43:12.557Z,997.34
2019-02-02T17:48:07.947Z,997.47
2019-02-02T17:53:04.494Z,997.69
2019-02-02T17:57:59.799Z,997.66
2019-02-02T18:02:56.444Z,997.74
2019-02-02T18:07:52.387Z,997.90
2019-02-02T18:12:48.066Z,998.01
2019-02-02T18:17:44.268Z,998.07
2019-02-02T18:22:39.894Z,998.19
2019-02-02T18:27:35.532Z,998.37
2019-02-02T18:32:31.759Z,998.35
2019-02-02T18:37:27.575Z,998.45
2019-02-02T18:42:23.222Z,998.45
2019-02-02T18:47:19.939Z,998.58
2019-02-02T18:52:15.204Z,998.74
2019-02-02T18:57:10.620Z,998.88
2019-02-02T19:02:06.122Z,998.92
2019-02-02T19:07:02.352Z,998.91
2019-02-02T19:11:57.650Z,998.95
2019-02-02T19:17:00.682Z,999.05
2019-02-02T19:21:52.758Z,999.31
2019-02-02T19:26:49.420Z,999.42
2019-02-02T19:31:44.679Z,999.59
2019-02-02T19:36:39.783Z,999.52
2019-02-02T19:41:35.809Z,999.56
2019-02-02T19:46:31.399Z,999.69
2019-02-02T19:51:27.076Z,999.75
2019-02-02T19:56:22.685Z,999.77
2019-02-02T20:01:18.272Z,999.98
2019-02-02T20:06:14.727Z,999.91
2019-02-02T20:11:11.017Z,999.92
2019-02-02T20:16:06.971Z,999.87
2019-02-02T20:21:03.171Z,1000.12
2019-02-02T20:25:59.546Z,1000.19
2019-02-02T20:30:55.129Z,1000.30
2019-02-02T20:35:51.620Z,1000.47
2019-02-02T20:40:47.929Z,1000.49
2019-02-02T20:45:42.971Z,1000.54
2019-02-02T20:50:38.563Z,1000.54
2019-02-02T20:55:35.172Z,1000.62
2019-02-02T21:00:31.517Z,1000.72
2019-02-02T21:05:26.407Z,1000.88
2019-02-02T21:10:22.968Z,1000.98
2019-02-02T21:15:19.274Z,1001.01
2019-02-02T21:20:14.467Z,1001.13
2019-02-02T21:25:10.171Z,1001.27
2019-02-02T21:30:05.753Z,1001.22
2019-02-02T21:35:02.243Z,1001.33
2019-02-02T21:39:57.988Z,1001.45
2019-02-02T21:44:54.311Z,1001.57
2019-02-02T21:49:50.673Z,1001.58
2019-02-02T21:54:47.331Z,1001.90
2019-02-02T21:59:42.677Z,1002.03
2019-02-02T22:04:38.157Z,1002.01
2019-02-02T22:09:33.890Z,1002.22
2019-02-02T22:14:29.105Z,1002.29
2019-02-02T22:19:24.673Z,1002.46
2019-02-02T22:24:20.273Z,1002.50
2019-02-02T22:29:16.890Z,1002.66
2019-02-02T22:34:13.281Z,1002.73
2019-02-02T22:39:08.378Z,1002.89
2019-02-02T22:44:04.604Z,1002.96
2019-02-02T22:49:00.129Z,1003.03
2019-02-02T22:53:55.722Z,1003.09
2019-02-02T22:58:52.380Z,1003.12
2019-02-02T23:03:48.123Z,1003.10
2019-02-02T23:08:44.766Z,1003.21
2019-02-02T23:13:40.228Z,1003.46
2019-02-02T23:18:35.920Z,1003.53
2019-02-02T23:23:32.487Z,1003.63
2019-02-02T23:28:28.785Z,1003.71
2019-02-02T23:33:24.058Z,1003.83
2019-02-02T23:38:19.991Z,1003.86
2019-02-02T23:43:16.536Z,1003.86
2019-02-02T23:48:11.759Z,1003.90
2019-02-02T23:53:07.478Z,1003.98
2019-02-02T23:58:03.095Z,1003.97
